createdAt,value
2019-05-26T00:00:09.978Z,75.88
2019-05-26T00:02:36.596Z,75.88
2019-05-26T00:05:05.263Z,75.59
2019-05-26T00:07:31.514Z,75.53
2019-05-26T00:09:57.859Z,75.80
2019-05-26T00:12:23.956Z,75.79
2019-05-26T00:14:50.055Z,75.44
2019-05-26T00:17:17.411Z,75.88
2019-05-26T00:19:43.653Z,75.97
2019-05-26T00:22:09.966Z,75.37
2019-05-26T00:24:36.197Z,75.62
2019-05-26T00:27:02.906Z,75.60
2019-05-26T00:29:29.098Z,75.29
2019-05-26T00:31:55.611Z,75.08
2019-05-26T00:34:22.021Z,74.74
2019-05-26T00:36:48.247Z,75.02
2019-05-26T00:39:14.380Z,74.64
2019-05-26T00:41:40.704Z,74.86
2019-05-26T00:44:06.946Z,75.46
2019-05-26T00:46:33.365Z,75.20
2019-05-26T00:48:59.893Z,74.82
2019-05-26T00:51:26.134Z,75.40
2019-05-26T00:53:52.324Z,76.14
2019-05-26T00:56:18.566Z,74.99
2019-05-26T00:58:44.667Z,74.99
2019-05-26T01:01:11.076Z,75.24
2019-05-26T01:03:37.660Z,75.74
2019-05-26T01:06:03.975Z,75.53
2019-05-26T01:08:30.160Z,75.75
2019-05-26T01:10:56.360Z,75.17
2019-05-26T01:13:22.473Z,74.84
2019-05-26T01:15:48.797Z,74.97
2019-05-26T01:18:15.950Z,75.22
2019-05-26T01:20:42.231Z,75.95
2019-05-26T01:23:08.366Z,76.04
2019-05-26T01:25:34.561Z,75.58
2019-05-26T01:28:00.865Z,76.15
2019-05-26T01:30:37.568Z,76.47
2019-05-26T01:33:04.773Z,76.66
2019-05-26T01:35:31.279Z,77.36
2019-05-26T01:37:58.282Z,76.64
2019-05-26T01:40:36.313Z,76.74
2019-05-26T01:43:02.600Z,76.74
2019-05-26T01:45:28.840Z,76.26
2019-05-26T01:47:55.036Z,75.77
2019-05-26T01:50:21.323Z,75.77
2019-05-26T01:52:47.598Z,77.09
2019-05-26T01:55:13.683Z,77.29
2019-05-26T01:57:40.098Z,76.81
2019-05-26T02:00:07.754Z,76.54
2019-05-26T02:02:34.243Z,76.54
2019-05-26T02:05:00.474Z,76.63
2019-05-26T02:07:26.778Z,76.96
2019-05-26T02:09:53.147Z,76.92
2019-05-26T02:12:19.348Z,77.10
2019-05-26T02:14:45.660Z,77.24
2019-05-26T02:17:11.994Z,77.11
2019-05-26T02:19:38.316Z,77.11
2019-05-26T02:22:05.134Z,76.97
2019-05-26T02:24:31.462Z,76.97
2019-05-26T02:26:57.702Z,75.83
2019-05-26T02:29:23.802Z,75.83
2019-05-26T02:31:50.133Z,76.09
2019-05-26T02:34:16.344Z,76.52
2019-05-26T02:36:42.535Z,77.21
2019-05-26T02:39:08.796Z,77.95
2019-05-26T02:41:35.072Z,78.06
2019-05-26T02:44:01.265Z,77.74
2019-05-26T02:46:27.437Z,78.00
2019-05-26T02:48:53.569Z,78.32
2019-05-26T02:51:19.801Z,77.81
2019-05-26T02:53:46.081Z,77.56
2019-05-26T02:56:12.800Z,77.53
2019-05-26T02:58:38.978Z,77.30
2019-05-26T03:01:05.288Z,77.77
2019-05-26T03:03:31.533Z,78.14
2019-05-26T03:05:58.307Z,78.79
2019-05-26T03:08:25.197Z,78.60
2019-05-26T03:10:53.203Z,78.28
2019-05-26T03:13:19.516Z,78.56
2019-05-26T03:15:46.097Z,78.38
2019-05-26T03:18:12.795Z,78.46
2019-05-26T03:20:40.052Z,78.72
2019-05-26T03:23:07.468Z,78.52
2019-05-26T03:25:35.181Z,78.16
2019-05-26T03:28:01.459Z,78.02
2019-05-26T03:30:27.616Z,78.52
2019-05-26T03:32:53.866Z,78.29
2019-05-26T03:35:19.981Z,77.12
2019-05-26T03:37:46.091Z,77.12
2019-05-26T03:40:12.503Z,77.44
2019-05-26T03:42:38.828Z,77.47
2019-05-26T03:45:07.136Z,76.64
2019-05-26T03:47:33.376Z,76.29
2019-05-26T03:49:59.682Z,76.43
2019-05-26T03:52:25.799Z,76.81
2019-05-26T03:54:51.928Z,76.81
2019-05-26T03:57:18.141Z,77.06
2019-05-26T03:59:44.273Z,77.06
2019-05-26T04:02:10.576Z,77.43
2019-05-26T04:04:36.894Z,77.79
2019-05-26T04:07:03.276Z,77.93
2019-05-26T04:09:29.605Z,77.94
2019-05-26T04:11:55.801Z,77.94
2019-05-26T04:14:22.188Z,78.05
2019-05-26T04:16:48.309Z,78.11
2019-05-26T04:19:14.606Z,78.11
2019-05-26T04:21:40.760Z,77.91
2019-05-26T04:24:06.836Z,77.67
2019-05-26T04:26:33.105Z,77.70
2019-05-26T04:28:59.308Z,77.56
2019-05-26T04:31:25.621Z,77.33
2019-05-26T04:33:51.735Z,76.73
2019-05-26T04:36:17.824Z,76.90
2019-05-26T04:38:44.144Z,76.16
2019-05-26T04:41:10.265Z,75.68
2019-05-26T04:43:36.459Z,75.93
2019-05-26T04:46:03.904Z,75.24
2019-05-26T04:48:30.125Z,74.67
2019-05-26T04:50:56.476Z,74.66
2019-05-26T04:53:22.595Z,75.03
2019-05-26T04:55:48.898Z,74.19
2019-05-26T04:58:15.014Z,74.66
2019-05-26T05:00:41.151Z,73.89
2019-05-26T05:03:07.523Z,74.16
2019-05-26T05:05:33.746Z,74.82
2019-05-26T05:07:59.889Z,74.44
2019-05-26T05:10:41.271Z,74.81
2019-05-26T05:12:54.238Z,73.45
2019-05-26T05:15:20.550Z,73.69
2019-05-26T05:17:46.692Z,73.56
2019-05-26T05:20:13.025Z,74.38
2019-05-26T05:22:39.213Z,74.53
2019-05-26T05:25:13.846Z,72.95
2019-05-26T05:27:35.159Z,74.11
2019-05-26T05:30:03.549Z,72.59
2019-05-26T05:32:32.814Z,73.04
2019-05-26T05:34:57.934Z,72.63
2019-05-26T05:37:25.236Z,72.21
2019-05-26T05:39:51.895Z,72.37
2019-05-26T05:42:18.205Z,71.73
2019-05-26T05:44:44.369Z,71.82
2019-05-26T05:47:10.618Z,71.71
2019-05-26T05:49:36.997Z,71.61
2019-05-26T05:52:03.654Z,70.86
2019-05-26T05:54:29.890Z,70.81
2019-05-26T05:56:56.106Z,70.81
2019-05-26T05:59:22.343Z,70.66
2019-05-26T06:01:48.698Z,70.04
2019-05-26T06:04:15.138Z,70.22
2019-05-26T06:06:41.394Z,70.07
2019-05-26T06:09:07.695Z,70.31
2019-05-26T06:11:33.918Z,69.94
2019-05-26T06:14:00.202Z,69.66
2019-05-26T06:16:26.308Z,68.87
2019-05-26T06:18:52.514Z,68.78
2019-05-26T06:21:18.668Z,69.56
2019-05-26T06:23:44.981Z,69.72
2019-05-26T06:26:11.290Z,69.23
2019-05-26T06:28:37.711Z,69.07
2019-05-26T06:31:04.121Z,68.24
2019-05-26T06:33:31.514Z,66.42
2019-05-26T06:35:57.814Z,66.84
2019-05-26T06:38:25.730Z,65.64
2019-05-26T06:40:52.010Z,64.56
2019-05-26T06:43:18.313Z,64.68
2019-05-26T06:45:44.544Z,64.13
2019-05-26T06:48:10.838Z,64.08
2019-05-26T06:50:37.140Z,63.69
2019-05-26T06:53:03.349Z,63.98
2019-05-26T06:55:29.711Z,63.28
2019-05-26T06:57:55.967Z,62.87
2019-05-26T07:00:22.249Z,63.38
2019-05-26T07:02:48.578Z,63.08
2019-05-26T07:05:18.406Z,63.04
2019-05-26T07:07:43.704Z,62.71
2019-05-26T07:10:10.035Z,63.32
2019-05-26T07:12:36.273Z,63.23
2019-05-26T07:15:05.148Z,63.49
2019-05-26T07:17:31.377Z,63.54
2019-05-26T07:19:57.567Z,63.50
2019-05-26T07:22:23.813Z,63.42
2019-05-26T07:24:50.053Z,63.44
2019-05-26T07:27:16.432Z,63.56
2019-05-26T07:29:42.549Z,61.78
2019-05-26T07:32:08.936Z,62.33
2019-05-26T07:34:35.139Z,63.27
2019-05-26T07:37:01.479Z,62.63
2019-05-26T07:39:27.761Z,62.06
2019-05-26T07:42:09.479Z,61.04
2019-05-26T07:44:23.280Z,60.86
2019-05-26T07:46:49.625Z,61.28
2019-05-26T07:49:15.926Z,60.57
2019-05-26T07:51:42.124Z,62.13
2019-05-26T07:54:24.306Z,61.71
2019-05-26T07:56:36.422Z,61.44
2019-05-26T07:59:02.885Z,61.85
2019-05-26T08:01:35.635Z,61.77
2019-05-26T08:03:57.298Z,61.09
2019-05-26T08:06:23.520Z,60.44
2019-05-26T08:08:49.872Z,61.24
2019-05-26T08:11:16.162Z,61.26
2019-05-26T08:13:42.368Z,60.32
2019-05-26T08:16:08.589Z,60.10
2019-05-26T08:18:34.974Z,60.39
2019-05-26T08:21:01.355Z,59.94
2019-05-26T08:23:27.480Z,59.23
2019-05-26T08:25:53.889Z,59.46
2019-05-26T08:28:20.096Z,59.17
2019-05-26T08:30:46.201Z,58.71
2019-05-26T08:33:12.367Z,58.35
2019-05-26T08:35:38.666Z,57.35
2019-05-26T08:38:04.979Z,57.24
2019-05-26T08:40:31.218Z,56.44
2019-05-26T08:42:57.393Z,57.35
2019-05-26T08:45:23.626Z,57.19
2019-05-26T08:47:50.354Z,57.58
2019-05-26T08:50:17.285Z,57.14
2019-05-26T08:52:43.613Z,57.36
2019-05-26T08:55:10.430Z,56.89
2019-05-26T08:57:36.668Z,57.23
2019-05-26T09:00:05.680Z,57.73
2019-05-26T09:02:32.119Z,56.51
2019-05-26T09:04:58.429Z,56.43
2019-05-26T09:07:24.667Z,55.95
2019-05-26T09:09:50.956Z,55.63
2019-05-26T09:12:17.462Z,56.10
2019-05-26T09:14:43.593Z,55.73
2019-05-26T09:17:09.918Z,55.24
2019-05-26T09:19:36.236Z,55.19
2019-05-26T09:22:03.515Z,55.23
2019-05-26T09:24:29.878Z,54.34
2019-05-26T09:26:56.405Z,54.14
2019-05-26T09:29:22.772Z,55.22
2019-05-26T09:31:48.856Z,53.90
2019-05-26T09:34:15.076Z,54.61
2019-05-26T09:36:41.215Z,54.64
2019-05-26T09:39:07.737Z,54.95
2019-05-26T09:41:34.230Z,53.95
2019-05-26T09:44:00.652Z,52.92
2019-05-26T09:46:26.768Z,53.46
2019-05-26T09:48:53.533Z,53.62
2019-05-26T09:51:19.788Z,52.39
2019-05-26T09:53:59.054Z,52.36
2019-05-26T09:56:14.185Z,52.74
2019-05-26T09:58:43.295Z,52.84
2019-05-26T10:01:09.870Z,53.09
2019-05-26T10:03:36.186Z,52.95
2019-05-26T10:06:02.943Z,52.36
2019-05-26T10:08:29.653Z,51.96
2019-05-26T10:10:56.045Z,52.47
2019-05-26T10:13:31.444Z,52.79
2019-05-26T10:15:50.626Z,52.44
2019-05-26T10:18:17.030Z,52.97
2019-05-26T10:20:43.554Z,51.74
2019-05-26T10:23:09.899Z,51.48
2019-05-26T10:25:36.011Z,52.27
2019-05-26T10:28:02.527Z,51.26
2019-05-26T10:30:28.647Z,51.50
2019-05-26T10:32:55.002Z,52.03
2019-05-26T10:35:21.395Z,49.94
2019-05-26T10:37:47.935Z,50.13
2019-05-26T10:40:14.551Z,50.91
2019-05-26T10:42:40.880Z,49.41
2019-05-26T10:45:08.170Z,50.50
2019-05-26T10:47:35.721Z,49.63
2019-05-26T10:50:05.641Z,49.90
2019-05-26T10:52:31.895Z,49.06
2019-05-26T10:54:58.142Z,49.45
2019-05-26T10:57:24.607Z,48.88
2019-05-26T10:59:51.136Z,49.21
2019-05-26T11:02:17.355Z,49.35
2019-05-26T11:04:43.651Z,48.94
2019-05-26T11:07:09.981Z,48.35
2019-05-26T11:09:36.409Z,48.01
2019-05-26T11:12:03.560Z,47.99
2019-05-26T11:14:29.927Z,47.98
2019-05-26T11:16:56.181Z,47.71
2019-05-26T11:19:22.562Z,47.82
2019-05-26T11:21:48.777Z,47.80
2019-05-26T11:24:15.436Z,47.92
2019-05-26T11:26:41.649Z,47.40
2019-05-26T11:29:07.955Z,47.82
2019-05-26T11:31:34.273Z,48.96
2019-05-26T11:34:00.591Z,47.68
2019-05-26T11:36:26.862Z,48.03
2019-05-26T11:38:53.246Z,47.15
2019-05-26T11:41:19.508Z,48.15
2019-05-26T11:43:45.764Z,46.97
2019-05-26T11:46:11.959Z,47.13
2019-05-26T11:48:39.309Z,47.27
2019-05-26T11:51:05.984Z,47.33
2019-05-26T11:53:32.309Z,45.79
2019-05-26T11:55:58.507Z,45.95
2019-05-26T11:58:24.708Z,44.75
2019-05-26T12:00:50.894Z,45.54
2019-05-26T12:03:17.032Z,45.47
2019-05-26T12:05:43.618Z,45.86
2019-05-26T12:08:10.049Z,45.07
2019-05-26T12:10:37.055Z,43.83
2019-05-26T12:13:03.392Z,44.20
2019-05-26T12:15:29.734Z,44.17
2019-05-26T12:17:56.109Z,44.03
2019-05-26T12:20:22.412Z,42.36
2019-05-26T12:22:48.681Z,43.07
2019-05-26T12:25:14.972Z,42.64
2019-05-26T12:27:41.187Z,42.05
2019-05-26T12:30:08.921Z,42.90
2019-05-26T12:32:35.187Z,43.22
2019-05-26T12:35:01.527Z,43.57
2019-05-26T12:37:27.901Z,43.84
2019-05-26T12:39:55.131Z,43.96
2019-05-26T12:42:21.607Z,43.63
2019-05-26T12:44:49.810Z,44.34
2019-05-26T12:47:17.538Z,44.04
2019-05-26T12:49:43.901Z,45.36
2019-05-26T12:52:10.309Z,45.78
2019-05-26T12:54:36.435Z,45.93
2019-05-26T12:57:02.793Z,45.76
2019-05-26T12:59:29.195Z,46.95
2019-05-26T13:01:55.526Z,45.67
2019-05-26T13:04:21.979Z,45.93
2019-05-26T13:06:48.209Z,45.30
2019-05-26T13:09:14.913Z,45.57
2019-05-26T13:11:41.278Z,45.68
2019-05-26T13:14:07.472Z,45.71
2019-05-26T13:16:35.821Z,46.14
2019-05-26T13:19:02.069Z,46.46
2019-05-26T13:21:28.383Z,46.25
2019-05-26T13:23:54.691Z,46.50
2019-05-26T13:26:21.086Z,46.77
2019-05-26T13:28:47.441Z,46.77
2019-05-26T13:31:13.832Z,47.30
2019-05-26T13:33:40.255Z,46.70
2019-05-26T13:36:06.736Z,47.27
2019-05-26T13:38:33.027Z,47.49
2019-05-26T13:40:59.244Z,47.96
2019-05-26T13:43:25.642Z,47.25
2019-05-26T13:45:51.982Z,47.05
2019-05-26T13:48:18.144Z,47.36
2019-05-26T13:50:44.411Z,47.52
2019-05-26T13:53:10.700Z,47.53
2019-05-26T13:55:36.896Z,46.80
2019-05-26T13:58:03.603Z,46.75
2019-05-26T14:00:30.168Z,46.34
2019-05-26T14:02:56.593Z,47.57
2019-05-26T14:05:23.136Z,47.12
2019-05-26T14:07:49.885Z,47.50
2019-05-26T14:10:29.191Z,47.20
2019-05-26T14:12:55.778Z,46.52
2019-05-26T14:15:36.883Z,47.94
2019-05-26T14:17:51.798Z,47.51
2019-05-26T14:20:21.848Z,47.43
2019-05-26T14:22:49.719Z,47.18
2019-05-26T14:25:16.001Z,47.69
2019-05-26T14:27:42.428Z,47.57
2019-05-26T14:30:08.875Z,48.31
2019-05-26T14:32:35.011Z,47.94
2019-05-26T14:35:01.495Z,48.13
2019-05-26T14:37:27.815Z,47.13
2019-05-26T14:39:54.299Z,47.92
2019-05-26T14:42:20.583Z,47.94
2019-05-26T14:44:46.778Z,48.35
2019-05-26T14:47:12.994Z,48.17
2019-05-26T14:49:40.468Z,47.72
2019-05-26T14:52:06.722Z,47.62
2019-05-26T14:54:32.986Z,48.04
2019-05-26T14:56:59.170Z,47.94
2019-05-26T14:59:25.415Z,48.42
2019-05-26T15:01:51.676Z,49.37
2019-05-26T15:04:18.094Z,49.30
2019-05-26T15:06:44.195Z,49.45
2019-05-26T15:09:24.267Z,49.50
2019-05-26T15:11:38.520Z,49.92
2019-05-26T15:14:04.837Z,49.69
2019-05-26T15:16:31.068Z,50.55
2019-05-26T15:18:57.353Z,50.42
2019-05-26T15:21:23.494Z,50.19
2019-05-26T15:23:49.685Z,50.42
2019-05-26T15:26:16.104Z,50.34
2019-05-26T15:28:42.480Z,50.73
2019-05-26T15:31:10.219Z,50.52
2019-05-26T15:33:36.379Z,50.38
2019-05-26T15:36:02.692Z,50.67
2019-05-26T15:38:42.093Z,51.11
2019-05-26T15:40:57.056Z,50.81
2019-05-26T15:43:23.303Z,50.85
2019-05-26T15:45:49.534Z,51.49
2019-05-26T15:48:15.783Z,51.35
2019-05-26T15:50:42.140Z,51.19
2019-05-26T15:53:08.282Z,51.49
2019-05-26T15:55:34.550Z,51.07
2019-05-26T15:58:00.932Z,51.12
2019-05-26T16:00:27.379Z,50.79
2019-05-26T16:02:53.577Z,51.37
2019-05-26T16:05:19.875Z,51.17
2019-05-26T16:07:46.139Z,50.57
2019-05-26T16:10:12.384Z,52.24
2019-05-26T16:12:38.679Z,51.31
2019-05-26T16:15:06.635Z,51.32
2019-05-26T16:17:33.220Z,51.30
2019-05-26T16:19:59.487Z,51.33
2019-05-26T16:22:25.682Z,51.97
2019-05-26T16:24:51.884Z,51.35
2019-05-26T16:27:19.881Z,51.65
2019-05-26T16:29:46.827Z,51.77
2019-05-26T16:32:13.114Z,51.78
2019-05-26T16:34:39.324Z,51.79
2019-05-26T16:37:05.669Z,51.79
2019-05-26T16:39:37.091Z,51.90
2019-05-26T16:42:00.165Z,51.95
2019-05-26T16:44:26.394Z,51.66
2019-05-26T16:46:56.423Z,51.89
2019-05-26T16:49:20.891Z,51.57
2019-05-26T16:51:47.196Z,51.88
2019-05-26T16:54:13.503Z,51.66
2019-05-26T16:56:39.781Z,51.76
2019-05-26T16:59:06.198Z,52.20
2019-05-26T17:01:32.381Z,52.05
2019-05-26T17:03:58.503Z,51.81
2019-05-26T17:06:24.790Z,51.89
2019-05-26T17:08:51.146Z,51.75
2019-05-26T17:11:17.501Z,52.65
2019-05-26T17:13:43.978Z,52.44
2019-05-26T17:16:10.100Z,52.14
2019-05-26T17:18:36.434Z,52.74
2019-05-26T17:21:02.857Z,52.37
2019-05-26T17:23:29.186Z,52.27
2019-05-26T17:25:55.431Z,51.54
2019-05-26T17:28:21.681Z,51.64
2019-05-26T17:30:49.121Z,51.68
2019-05-26T17:33:15.357Z,52.00
2019-05-26T17:35:41.612Z,51.81
2019-05-26T17:38:07.876Z,51.95
2019-05-26T17:40:34.260Z,52.04
2019-05-26T17:43:00.575Z,52.51
2019-05-26T17:45:26.921Z,52.17
2019-05-26T17:47:53.093Z,52.65
2019-05-26T17:50:19.509Z,52.39
2019-05-26T17:52:45.843Z,52.64
2019-05-26T17:55:12.449Z,52.86
2019-05-26T17:57:38.784Z,53.13
2019-05-26T18:00:10.099Z,53.10
2019-05-26T18:02:37.049Z,53.50
2019-05-26T18:05:04.141Z,53.47
2019-05-26T18:07:31.339Z,53.79
2019-05-26T18:09:57.604Z,53.81
2019-05-26T18:12:23.862Z,53.77
2019-05-26T18:14:50.212Z,53.97
2019-05-26T18:17:16.536Z,53.93
2019-05-26T18:19:42.897Z,54.27
2019-05-26T18:22:09.232Z,54.47
2019-05-26T18:24:35.714Z,54.88
2019-05-26T18:27:01.984Z,54.71
2019-05-26T18:29:28.391Z,54.71
2019-05-26T18:31:54.741Z,54.51
2019-05-26T18:34:20.946Z,54.50
2019-05-26T18:36:47.198Z,54.62
2019-05-26T18:39:13.352Z,54.54
2019-05-26T18:41:39.565Z,54.70
2019-05-26T18:44:06.280Z,54.46
2019-05-26T18:46:33.647Z,54.54
2019-05-26T18:48:59.843Z,54.71
2019-05-26T18:51:26.092Z,55.02
2019-05-26T18:53:52.412Z,55.11
2019-05-26T18:56:18.807Z,55.50
2019-05-26T18:58:45.131Z,55.45
2019-05-26T19:01:11.654Z,55.82
2019-05-26T19:03:38.033Z,56.03
2019-05-26T19:06:04.278Z,56.36
2019-05-26T19:08:30.586Z,56.96
2019-05-26T19:10:57.119Z,56.98
2019-05-26T19:13:23.553Z,57.19
2019-05-26T19:15:49.992Z,56.98
2019-05-26T19:18:20.289Z,57.44
2019-05-26T19:20:44.400Z,57.45
2019-05-26T19:23:10.609Z,57.57
2019-05-26T19:25:36.971Z,57.78
2019-05-26T19:28:03.563Z,57.98
2019-05-26T19:30:30.872Z,57.52
2019-05-26T19:32:57.203Z,57.58
2019-05-26T19:35:23.855Z,57.93
2019-05-26T19:37:49.987Z,58.03
2019-05-26T19:40:16.818Z,58.08
2019-05-26T19:42:43.330Z,57.87
2019-05-26T19:45:10.051Z,58.16
2019-05-26T19:47:36.533Z,58.28
2019-05-26T19:50:07.870Z,58.27
2019-05-26T19:52:34.295Z,57.96
2019-05-26T19:55:00.758Z,57.88
2019-05-26T19:57:27.112Z,58.41
2019-05-26T19:59:53.429Z,58.41
2019-05-26T20:02:19.621Z,58.50
2019-05-26T20:04:46.079Z,58.81
2019-05-26T20:07:12.485Z,58.76
2019-05-26T20:09:38.837Z,58.90
2019-05-26T20:12:05.153Z,58.66
2019-05-26T20:14:31.504Z,58.29
2019-05-26T20:16:58.982Z,58.83
2019-05-26T20:19:25.333Z,58.57
2019-05-26T20:21:51.512Z,58.72
2019-05-26T20:24:17.923Z,58.75
2019-05-26T20:26:44.037Z,58.97
2019-05-26T20:29:10.352Z,59.11
2019-05-26T20:31:36.707Z,59.12
2019-05-26T20:34:03.174Z,59.29
2019-05-26T20:36:29.452Z,59.43
2019-05-26T20:38:55.647Z,59.49
2019-05-26T20:41:22.017Z,59.45
2019-05-26T20:43:48.438Z,59.79
2019-05-26T20:46:14.680Z,60.20
2019-05-26T20:48:41.041Z,60.30
2019-05-26T20:51:07.491Z,60.20
2019-05-26T20:53:34.868Z,60.53
2019-05-26T20:56:01.161Z,60.60
2019-05-26T20:58:28.010Z,61.00
2019-05-26T21:00:54.221Z,61.11
2019-05-26T21:03:20.431Z,61.01
2019-05-26T21:05:46.674Z,61.10
2019-05-26T21:08:12.954Z,61.19
2019-05-26T21:10:39.075Z,61.43
2019-05-26T21:13:05.355Z,61.40
2019-05-26T21:15:31.433Z,61.30
2019-05-26T21:17:57.659Z,61.75
2019-05-26T21:20:24.001Z,62.24
2019-05-26T21:22:50.489Z,62.09
2019-05-26T21:25:16.881Z,62.18
2019-05-26T21:27:42.979Z,62.05
2019-05-26T21:30:09.760Z,62.12
2019-05-26T21:32:36.080Z,62.37
2019-05-26T21:35:04.311Z,62.34
2019-05-26T21:37:30.766Z,62.16
2019-05-26T21:39:56.922Z,61.62
2019-05-26T21:42:23.079Z,61.54
2019-05-26T21:44:49.353Z,61.58
2019-05-26T21:47:15.565Z,61.69
2019-05-26T21:49:41.823Z,61.53
2019-05-26T21:52:08.013Z,61.86
2019-05-26T21:54:34.149Z,62.06
2019-05-26T21:57:01.381Z,62.25
2019-05-26T21:59:27.748Z,62.59
2019-05-26T22:01:54.113Z,62.73
2019-05-26T22:04:20.219Z,62.76
2019-05-26T22:06:46.478Z,62.77
2019-05-26T22:09:12.683Z,63.17
2019-05-26T22:11:38.821Z,62.33
2019-05-26T22:14:04.994Z,62.47
2019-05-26T22:16:31.211Z,62.44
2019-05-26T22:19:00.144Z,62.05
2019-05-26T22:21:25.322Z,62.05
2019-05-26T22:23:51.556Z,62.43
2019-05-26T22:26:18.007Z,62.24
2019-05-26T22:28:44.125Z,62.46
2019-05-26T22:31:10.326Z,62.36
2019-05-26T22:33:36.520Z,62.26
2019-05-26T22:36:02.931Z,62.32
2019-05-26T22:38:29.125Z,61.96
2019-05-26T22:40:55.231Z,61.79
2019-05-26T22:43:21.330Z,61.96
2019-05-26T22:45:47.549Z,61.68
2019-05-26T22:48:13.740Z,61.77
2019-05-26T22:50:39.969Z,61.69
2019-05-26T22:53:06.222Z,61.81
2019-05-26T22:55:32.586Z,61.78
2019-05-26T22:57:58.713Z,61.67
2019-05-26T23:00:25.405Z,61.00
2019-05-26T23:02:51.503Z,61.54
2019-05-26T23:05:17.919Z,61.22
2019-05-26T23:07:44.128Z,61.36
2019-05-26T23:10:10.639Z,61.33
2019-05-26T23:12:37.022Z,61.38
2019-05-26T23:15:06.464Z,61.15
2019-05-26T23:17:32.579Z,61.20
2019-05-26T23:19:58.689Z,61.38
2019-05-26T23:22:24.759Z,60.74
2019-05-26T23:24:51.057Z,61.04
2019-05-26T23:27:17.139Z,61.09
2019-05-26T23:29:43.358Z,61.16
2019-05-26T23:32:09.454Z,61.31
2019-05-26T23:34:35.576Z,61.63
2019-05-26T23:37:01.749Z,62.03
2019-05-26T23:39:28.270Z,62.18
2019-05-26T23:41:54.375Z,62.27
2019-05-26T23:44:20.585Z,61.85
2019-05-26T23:46:46.810Z,61.78
2019-05-26T23:49:12.937Z,61.72
2019-05-26T23:51:39.066Z,61.80
2019-05-26T23:54:05.157Z,61.68
2019-05-26T23:56:31.269Z,61.48
2019-05-26T23:58:57.367Z,61.79
